De Tour Village, MI (49725)

10:21 PM EDT on August 03, 2015 (GMT -0400)
Drummond Island near St. Mary's River | | Change Station
CLOSE
Current Station
Personal Weather Station
Location: Drummond, MI
Elevation: 581 ft
Nearby Weather Stations

Elev 581 ft 46.01 °N, 83.86 °W | Updated 2 minutes ago

Partly Cloudy
Partly Cloudy
61.0 °F
Feels Like 61.0 °F
N
0.0
Wind Variable Wind from North
Gusts 0.0 mph

Today
High -- | Low -- °F
--% Chance of Precip.
Yesterday
High -- | Low -- °F
Precip. -- in
6:20 AM 9:02 PM
Waning Gibbous, 82% visible
Pressure 29.80 in
Visibility 10.0 miles
Clouds Clear
Dew Point 56 °F
Humidity 83%
Rainfall 0.00 in
Snow Depth Not available.
UV 0.0 out of 12
Pollen 5.40 out of 12
Air Quality Not available.
Flu Activity Not available.
METAR KDRM 040214Z AUTO 31004KT 10SM CLR 15/11 A2980 RMK AO2 T01500110

More Conditions Fewer Conditions

Pressure 29.80 in
Visibility 10.0 miles
Clouds Clear
Dew Point 56 °F
Humidity 83%
Rainfall 0.00 in
Snow Depth Not available.
UV 0.0 out of 12
Pollen 5.40 out of 12
Air Quality Not available.
Flu Activity Not available.
METAR KDRM 040214Z AUTO 31004KT 10SM CLR 15/11 A2980 RMK AO2 T01500110

More Conditions Fewer Conditions

Nowcast | as of 10:00 PM EDT on August 3, 2015

At 11 PM...partly cloudy. Temperature 56. Northwest winds 5 mph. At 1 am...partly cloudy. Temperature 54. Light winds. At 3 am...partly cloudy. Temperature 53. Northwest winds 5 mph. At 5 am...mostly cloudy. Temperature 52. Northwest winds 6 mph.

×

10-Day Weather Forecast

×

Almanac

Astronomy

Aug. 03, 2015 Rise Set
Actual Time
Civil Twilight
Nautical Twilight
Astronomical Twilight
Moon
Length of Visible Light
Length of Day
Tomorrow will be .
, % of the Moon is Illuminated

Today's Extremes

State Highs State Lows

Community

WunderPhotos

Upload Photos

1,843,831 photos uploaded!

WunderBlogs® & News

Nearby

Air Quality

  Air Quality AQ Index Pollutant
Not available.

Snow Depth

Station Depth Elevation

Earthquake Activity

City Distance Mag. Time & Date
Minimum magnitude displayed is 2.5.

Coastal Water Temperatures

Place Temperature

Stations

Nearby Weather Stations

Station Location Temp. Windchill Dew Point Humidity Wind Precip. Elev Updated Type